Aguanish, Canada
Current Conditions -  °F | °C
As of 5:20 PM on Saturday 22 Nov 2014 (Local Time) from CYNA Reporting Station
Light Snow Light Snow  
Wind Chill:   Ceiling: 2700
Heat Index: 21°   Visibility: 6mi
Dew Point: 18°   Wind: 13mph
Humidity: 86%   Direction: 300°WNW
Pressure: 29.67"   Gusts: 18mph
Location:  50.22°N, 62.08°W
Report Text: CYNA 222120Z AUTO 30011G16KT 6SM -SN FEW021 OVC027 M06/M08 A2967 RMK SLP048
Loading
Personal Weather Stations






























Interactive Weather Map New forecast layout! Learn more

10-Day Weather Forecast

Advertisements
Track Severe Weather on mobile